createdAt,value
2019-04-06T00:00:44.170Z,99.90
2019-04-06T00:03:14.013Z,99.90
2019-04-06T00:05:43.640Z,99.90
2019-04-06T00:08:13.108Z,99.90
2019-04-06T00:10:42.554Z,99.90
2019-04-06T00:13:11.990Z,99.90
2019-04-06T00:15:41.815Z,99.90
2019-04-06T00:18:11.281Z,99.90
2019-04-06T00:20:40.736Z,99.90
2019-04-06T00:23:10.368Z,99.90
2019-04-06T00:25:44.687Z,99.90
2019-04-06T00:28:11.233Z,99.90
2019-04-06T00:30:57.394Z,99.90
2019-04-06T00:33:27.236Z,99.90
2019-04-06T00:35:58.075Z,99.90
2019-04-06T00:38:27.538Z,99.90
2019-04-06T00:40:57.228Z,99.90
2019-04-06T00:43:26.702Z,99.90
2019-04-06T00:45:56.142Z,99.90
2019-04-06T00:48:25.921Z,99.90
2019-04-06T00:50:55.372Z,99.90
2019-04-06T00:53:24.854Z,99.90
2019-04-06T00:55:55.929Z,99.90
2019-04-06T00:58:25.831Z,99.90
2019-04-06T01:00:55.276Z,99.90
2019-04-06T01:03:24.890Z,99.90
2019-04-06T01:05:54.309Z,99.90
2019-04-06T01:08:23.776Z,99.90
2019-04-06T01:10:53.200Z,99.90
2019-04-06T01:13:22.679Z,99.90
2019-04-06T01:15:52.172Z,99.90
2019-04-06T01:18:21.633Z,99.90
2019-04-06T01:20:51.094Z,99.90
2019-04-06T01:23:21.107Z,99.90
2019-04-06T01:25:50.586Z,99.90
2019-04-06T01:28:20.236Z,99.90
2019-04-06T01:30:49.690Z,99.90
2019-04-06T01:33:19.088Z,99.90
2019-04-06T01:35:48.878Z,99.90
2019-04-06T01:38:18.370Z,99.90
2019-04-06T01:40:47.793Z,99.90
2019-04-06T01:43:17.714Z,99.90
2019-04-06T01:45:47.161Z,99.90
2019-04-06T01:48:16.618Z,99.90
2019-04-06T01:50:46.256Z,99.90
2019-04-06T01:53:15.731Z,99.90
2019-04-06T01:55:45.648Z,99.90
2019-04-06T01:58:15.067Z,99.90
2019-04-06T02:00:58.231Z,99.90
2019-04-06T02:03:27.834Z,99.90
2019-04-06T02:05:57.323Z,99.90
2019-04-06T02:08:26.801Z,99.90
2019-04-06T02:10:56.598Z,99.90
2019-04-06T02:13:26.081Z,99.90
2019-04-06T02:15:55.756Z,99.90
2019-04-06T02:18:25.257Z,99.90
2019-04-06T02:20:54.701Z,99.90
2019-04-06T02:23:24.770Z,99.90
2019-04-06T02:25:54.251Z,99.90
2019-04-06T02:28:24.218Z,99.90
2019-04-06T02:31:04.421Z,99.90
2019-04-06T02:33:46.998Z,99.90
2019-04-06T02:36:31.625Z,99.90
2019-04-06T02:39:18.821Z,99.90
2019-04-06T02:41:52.493Z,99.90
2019-04-06T02:44:21.956Z,99.90
2019-04-06T02:46:51.403Z,99.90
2019-04-06T02:49:21.223Z,99.90
2019-04-06T02:51:50.657Z,99.90
2019-04-06T02:54:20.081Z,99.90
2019-04-06T02:56:49.767Z,99.90
2019-04-06T02:59:19.270Z,99.90
2019-04-06T03:01:49.119Z,99.90
2019-04-06T03:04:18.599Z,99.90
2019-04-06T03:06:48.091Z,99.90
2019-04-06T03:09:17.946Z,99.90
2019-04-06T03:11:47.463Z,99.90
2019-04-06T03:14:16.820Z,99.90
2019-04-06T03:16:46.473Z,99.90
2019-04-06T03:19:15.925Z,99.90
2019-04-06T03:21:45.582Z,99.90
2019-04-06T03:24:15.110Z,99.90
2019-04-06T03:26:59.261Z,99.90
2019-04-06T03:29:15.710Z,99.90
2019-04-06T03:31:45.127Z,99.90
2019-04-06T03:34:20.223Z,99.90
2019-04-06T03:36:46.176Z,99.90
2019-04-06T03:39:15.660Z,99.90
2019-04-06T03:41:46.732Z,99.90
2019-04-06T03:44:16.381Z,99.90
2019-04-06T03:46:45.931Z,99.90
2019-04-06T03:49:15.436Z,99.90
2019-04-06T03:51:45.288Z,99.90
2019-04-06T03:54:14.673Z,99.90
2019-04-06T03:56:44.117Z,99.90
2019-04-06T03:59:16.393Z,99.90
2019-04-06T04:01:45.989Z,99.90
2019-04-06T04:04:15.434Z,99.90
2019-04-06T04:06:45.024Z,99.90
2019-04-06T04:09:15.256Z,99.90
2019-04-06T04:11:45.432Z,99.90
2019-04-06T04:14:16.568Z,99.90
2019-04-06T04:16:46.331Z,99.90
2019-04-06T04:19:15.767Z,99.90
2019-04-06T04:21:45.357Z,99.90
2019-04-06T04:24:14.957Z,99.90
2019-04-06T04:26:44.427Z,99.90
2019-04-06T04:29:13.953Z,99.90
2019-04-06T04:31:43.719Z,99.90
2019-04-06T04:34:13.189Z,99.90
2019-04-06T04:36:42.640Z,99.90
2019-04-06T04:39:12.251Z,99.90
2019-04-06T04:41:41.680Z,99.90
2019-04-06T04:44:11.152Z,99.90
2019-04-06T04:46:40.915Z,99.90
2019-04-06T04:49:10.373Z,99.90
2019-04-06T04:51:40.113Z,99.90
2019-04-06T04:54:09.623Z,99.90
2019-04-06T04:56:39.115Z,99.90
2019-04-06T04:59:08.838Z,99.90
2019-04-06T05:01:38.764Z,99.90
2019-04-06T05:04:08.325Z,99.90
2019-04-06T05:09:08.519Z,99.90
2019-04-06T05:11:38.027Z,99.90
2019-04-06T05:14:43.316Z,99.90
2019-04-06T05:22:11.117Z,99.90
2019-04-06T05:24:40.589Z,99.90
2019-04-06T05:29:40.361Z,99.90
2019-04-06T06:36:46.916Z,77.10
2019-04-06T06:39:16.785Z,76.90
2019-04-06T06:41:46.296Z,73.40
2019-04-06T06:54:13.449Z,72.90
2019-04-06T06:59:11.794Z,74.30
2019-04-06T07:01:41.934Z,74.50
2019-04-06T07:04:11.813Z,73.90
2019-04-06T07:11:39.314Z,70.40
2019-04-06T07:14:08.840Z,69.90
2019-04-06T07:19:07.244Z,69.20
2019-04-06T07:24:06.003Z,68.80
2019-04-06T07:26:35.665Z,69.20
2019-04-06T07:29:05.303Z,69.30
2019-04-06T07:31:34.794Z,67.60
2019-04-06T07:34:04.662Z,69.70
2019-04-06T07:36:36.526Z,65.90
2019-04-06T07:39:07.152Z,64.70
2019-04-06T07:41:36.618Z,65.00
2019-04-06T07:44:06.485Z,64.80
2019-04-06T07:46:36.018Z,65.70
2019-04-06T07:49:09.169Z,65.40
2019-04-06T07:51:36.972Z,65.10
2019-04-06T07:54:06.409Z,63.70
2019-04-06T07:56:36.212Z,63.50
2019-04-06T07:59:05.829Z,61.50
2019-04-06T08:01:35.299Z,60.00
2019-04-06T08:04:05.882Z,59.50
2019-04-06T08:06:35.443Z,58.80
2019-04-06T08:09:07.446Z,59.10
2019-04-06T08:11:37.703Z,59.20
2019-04-06T08:14:07.640Z,58.90
2019-04-06T08:16:37.172Z,59.10
2019-04-06T08:19:06.862Z,57.70
2019-04-06T08:21:36.381Z,58.00
2019-04-06T08:24:05.920Z,57.60
2019-04-06T08:26:35.914Z,57.30
2019-04-06T08:29:05.840Z,57.00
2019-04-06T08:31:35.523Z,55.20
2019-04-06T08:34:05.297Z,55.90
2019-04-06T08:36:35.081Z,55.00
2019-04-06T08:39:06.825Z,55.00
2019-04-06T08:41:36.515Z,54.80
2019-04-06T08:44:06.176Z,55.50
2019-04-06T08:46:35.696Z,55.50
2019-04-06T08:49:05.820Z,55.10
2019-04-06T08:51:35.487Z,54.30
2019-04-06T08:54:04.961Z,55.00
2019-04-06T08:59:11.256Z,53.20
2019-04-06T09:01:35.004Z,54.20
2019-04-06T09:04:04.786Z,53.10
2019-04-06T09:06:34.279Z,53.70
2019-04-06T09:11:34.552Z,51.60
2019-04-06T09:14:03.991Z,52.80
2019-04-06T09:16:33.814Z,51.00
2019-04-06T09:21:32.489Z,51.20
2019-04-06T09:24:02.303Z,52.70
2019-04-06T09:26:32.008Z,52.50
2019-04-06T09:29:01.874Z,50.70
2019-04-06T09:31:31.503Z,50.40
2019-04-06T09:34:01.358Z,50.00
2019-04-06T09:36:30.781Z,50.00
2019-04-06T09:39:00.550Z,51.40
2019-04-06T09:41:30.288Z,50.50
2019-04-06T09:44:00.152Z,48.80
2019-04-06T09:46:39.120Z,49.60
2019-04-06T09:49:34.828Z,50.10
2019-04-06T09:52:13.427Z,50.00
2019-04-06T09:55:08.016Z,49.60
2019-04-06T09:58:02.643Z,47.00
2019-04-06T10:00:40.807Z,48.50
2019-04-06T10:03:35.712Z,49.40
2019-04-06T10:06:36.543Z,47.60
2019-04-06T10:09:31.565Z,48.70
2019-04-06T10:12:25.976Z,46.90
2019-04-06T10:15:14.979Z,46.60
2019-04-06T10:18:19.384Z,47.50
2019-04-06T10:21:10.784Z,47.20
2019-04-06T10:23:47.944Z,45.90
2019-04-06T10:29:20.598Z,46.20
2019-04-06T10:32:13.369Z,48.70
2019-04-06T10:35:01.941Z,46.60
2019-04-06T10:37:45.333Z,46.80
2019-04-06T10:40:32.428Z,48.00
2019-04-06T10:43:36.088Z,47.70
2019-04-06T10:46:16.522Z,48.30
2019-04-06T10:48:54.529Z,48.30
2019-04-06T10:51:34.380Z,46.40
2019-04-06T10:54:09.575Z,45.00
2019-04-06T11:00:01.091Z,46.10
2019-04-06T11:02:42.849Z,47.60
2019-04-06T11:05:18.394Z,46.00
2019-04-06T11:08:05.610Z,45.60
2019-04-06T11:10:45.248Z,45.30
2019-04-06T11:13:42.908Z,46.60
2019-04-06T11:16:49.849Z,46.90
2019-04-06T11:19:56.462Z,46.90
2019-04-06T11:22:47.283Z,46.20
2019-04-06T11:25:38.711Z,46.80
2019-04-06T11:28:26.373Z,47.00
2019-04-06T11:31:18.101Z,48.10
2019-04-06T11:37:14.104Z,46.10
2019-04-06T11:39:54.044Z,47.60
2019-04-06T11:42:42.555Z,46.80
2019-04-06T11:45:33.749Z,47.50
2019-04-06T11:48:28.461Z,47.20
2019-04-06T11:51:36.308Z,45.80
2019-04-06T11:54:38.834Z,45.50
2019-04-06T11:57:17.027Z,47.10
2019-04-06T12:00:04.260Z,45.60
2019-04-06T12:02:52.884Z,45.20
2019-04-06T12:05:44.026Z,45.80
2019-04-06T12:08:25.111Z,46.40
2019-04-06T12:11:26.263Z,46.10
2019-04-06T12:14:14.793Z,47.10
2019-04-06T12:17:02.299Z,46.00
2019-04-06T12:19:58.546Z,46.10
2019-04-06T12:22:34.537Z,45.60
2019-04-06T12:25:21.163Z,45.00
2019-04-06T12:28:02.273Z,45.30
2019-04-06T12:30:46.851Z,44.90
2019-04-06T12:39:31.486Z,44.40
2019-04-06T12:42:38.678Z,44.70
2019-04-06T12:45:26.177Z,44.60
2019-04-06T12:48:14.599Z,43.30
2019-04-06T12:51:01.972Z,41.90
2019-04-06T12:53:48.970Z,43.30
2019-04-06T12:56:35.970Z,42.80
2019-04-06T12:59:27.849Z,43.60
2019-04-06T13:08:01.753Z,44.20
2019-04-06T13:10:44.125Z,43.80
2019-04-06T13:13:32.538Z,42.60
2019-04-06T13:16:15.706Z,43.10
2019-04-06T13:24:37.690Z,41.70
2019-04-06T13:27:32.247Z,42.20
2019-04-06T13:30:24.088Z,43.60
2019-04-06T15:09:51.909Z,46.50
2019-04-06T15:17:55.423Z,47.60
2019-04-06T15:23:36.834Z,48.50
2019-04-06T15:29:17.289Z,49.30
2019-04-06T15:32:20.174Z,50.30
2019-04-06T15:35:21.039Z,50.20
2019-04-06T15:40:59.734Z,51.30
2019-04-06T15:44:08.005Z,52.10
2019-04-06T15:47:00.277Z,51.80
2019-04-06T15:49:45.277Z,51.50
2019-04-06T15:52:33.707Z,51.00
2019-04-06T16:00:35.803Z,52.60
2019-04-06T16:06:22.311Z,52.10
2019-04-06T16:09:20.004Z,53.10
2019-04-06T16:12:12.185Z,53.30
2019-04-06T16:15:09.784Z,53.60
2019-04-06T16:17:57.279Z,53.90
2019-04-06T16:20:41.566Z,54.00
2019-04-06T16:23:18.486Z,54.00
2019-04-06T16:26:19.204Z,54.70
2019-04-06T16:29:13.968Z,54.40
2019-04-06T16:32:11.558Z,54.30
2019-04-06T16:40:50.477Z,54.30
2019-04-06T16:43:44.984Z,54.40
2019-04-06T16:46:37.160Z,55.50
2019-04-06T16:49:19.765Z,55.20
2019-04-06T16:52:11.436Z,55.30
2019-04-06T16:54:56.756Z,54.90
2019-04-06T16:57:44.522Z,55.50
2019-04-06T17:00:29.764Z,55.70
2019-04-06T17:03:08.806Z,55.50
2019-04-06T17:05:58.318Z,55.90
2019-04-06T17:08:54.719Z,56.50
2019-04-06T17:11:43.176Z,56.40
2019-04-06T17:14:29.836Z,57.10
2019-04-06T17:17:22.054Z,56.80
2019-04-06T17:20:16.908Z,57.30
2019-04-06T17:23:04.242Z,57.10
2019-04-06T17:25:53.138Z,57.30
2019-04-06T17:28:54.268Z,58.30
2019-04-06T17:31:40.348Z,58.30
2019-04-06T17:34:25.828Z,58.60
2019-04-06T17:37:05.218Z,58.70
2019-04-06T17:39:49.419Z,59.60
2019-04-06T17:42:25.084Z,59.80
2019-04-06T17:45:12.607Z,60.80
2019-04-06T17:48:06.273Z,62.20
2019-04-06T17:51:04.675Z,62.70
2019-04-06T17:54:11.846Z,63.30
2019-04-06T17:57:09.566Z,62.60
2019-04-06T17:59:56.278Z,62.00
2019-04-06T18:02:51.094Z,61.90
2019-04-06T19:04:18.319Z,99.90
2019-04-06T19:06:48.154Z,99.90
2019-04-06T19:09:23.021Z,99.90
2019-04-06T19:11:55.111Z,99.90
2019-04-06T19:14:20.474Z,99.90
2019-04-06T19:16:50.263Z,99.90
2019-04-06T19:19:19.804Z,99.90
2019-04-06T19:21:49.308Z,99.90
2019-04-06T19:24:19.153Z,99.90
2019-04-06T19:26:48.895Z,99.90
2019-04-06T19:29:18.578Z,99.90
2019-04-06T19:31:48.028Z,99.90
2019-04-06T19:34:17.507Z,99.90
2019-04-06T19:36:47.255Z,99.90
2019-04-06T19:39:16.783Z,99.90
2019-04-06T19:41:46.201Z,99.90
2019-04-06T19:44:16.371Z,99.90
2019-04-06T19:46:46.262Z,99.90
2019-04-06T19:49:15.702Z,99.90
2019-04-06T19:51:46.751Z,99.90
2019-04-06T19:54:16.486Z,99.90
2019-04-06T19:56:46.373Z,99.90
2019-04-06T19:59:16.361Z,99.90
2019-04-06T20:01:47.074Z,99.90
2019-04-06T20:04:16.821Z,99.90
2019-04-06T20:06:46.669Z,99.90
2019-04-06T20:09:16.084Z,99.90
2019-04-06T20:11:45.605Z,99.90
2019-04-06T20:14:16.235Z,99.90
2019-04-06T20:16:45.663Z,99.90
2019-04-06T20:19:15.237Z,99.90
2019-04-06T20:21:45.330Z,99.90
2019-04-06T20:24:15.096Z,99.90
2019-04-06T20:26:44.549Z,99.90
2019-04-06T20:29:14.037Z,99.90
2019-04-06T20:31:44.570Z,99.90
2019-04-06T20:34:14.262Z,99.90
2019-04-06T20:36:43.683Z,99.90
2019-04-06T20:39:13.440Z,99.90
2019-04-06T20:41:42.896Z,99.90
2019-04-06T20:44:12.386Z,99.90
2019-04-06T20:46:42.258Z,99.90
2019-04-06T20:49:11.910Z,99.90
2019-04-06T20:51:41.504Z,99.90
2019-04-06T20:54:10.953Z,99.90
2019-04-06T20:56:52.051Z,99.90
2019-04-06T20:59:24.552Z,99.90
2019-04-06T21:01:54.326Z,99.90
2019-04-06T21:04:24.723Z,99.90
2019-04-06T21:06:54.936Z,99.90
2019-04-06T21:09:24.640Z,99.90
2019-04-06T21:11:54.630Z,99.90
2019-04-06T21:14:24.092Z,99.90
2019-04-06T21:16:53.605Z,99.90
2019-04-06T21:19:23.782Z,99.90
2019-04-06T21:21:53.646Z,99.90
2019-04-06T21:24:23.463Z,99.90
2019-04-06T21:26:53.259Z,99.90
2019-04-06T21:29:23.350Z,99.90
2019-04-06T21:31:53.548Z,99.90
2019-04-06T21:34:22.997Z,99.90
2019-04-06T21:36:52.816Z,99.90
2019-04-06T21:39:22.392Z,99.90
2019-04-06T21:41:52.175Z,99.90
2019-04-06T21:44:22.042Z,99.90
2019-04-06T21:46:51.645Z,99.90
2019-04-06T21:49:21.680Z,99.90
2019-04-06T21:51:51.578Z,99.90
2019-04-06T21:54:21.229Z,99.90
2019-04-06T21:56:51.782Z,99.90
2019-04-06T21:59:21.642Z,99.90
2019-04-06T22:01:51.389Z,99.90
2019-04-06T22:04:25.920Z,99.90
2019-04-06T22:06:52.721Z,99.90
2019-04-06T22:09:23.156Z,99.90
2019-04-06T22:11:53.102Z,99.90
2019-04-06T22:14:22.940Z,99.90
2019-04-06T22:16:52.450Z,99.90
2019-04-06T22:19:22.604Z,99.90
2019-04-06T22:21:52.227Z,99.90
2019-04-06T22:24:21.737Z,99.90
2019-04-06T22:26:51.868Z,99.90
2019-04-06T22:29:22.171Z,99.90
2019-04-06T22:31:52.010Z,99.90
2019-04-06T22:34:21.779Z,99.90
2019-04-06T22:36:51.600Z,99.90
2019-04-06T22:39:21.510Z,99.90
2019-04-06T22:41:51.193Z,99.90
2019-04-06T22:44:21.043Z,99.90
2019-04-06T22:46:51.389Z,99.90
2019-04-06T22:49:21.459Z,99.90
2019-04-06T22:51:50.932Z,99.90
2019-04-06T22:54:21.273Z,99.90
2019-04-06T22:56:51.260Z,99.90
2019-04-06T22:59:20.684Z,99.90
2019-04-06T23:01:50.491Z,99.90
2019-04-06T23:04:48.606Z,99.90
2019-04-06T23:07:16.924Z,99.90
2019-04-06T23:09:46.688Z,99.90
2019-04-06T23:12:16.758Z,99.90
2019-04-06T23:14:46.472Z,99.90
2019-04-06T23:17:16.908Z,99.90
2019-04-06T23:19:46.907Z,99.90
2019-04-06T23:22:16.842Z,99.90
2019-04-06T23:24:46.829Z,99.90
2019-04-06T23:27:16.540Z,99.90
2019-04-06T23:29:46.222Z,99.90
2019-04-06T23:32:16.010Z,99.90
2019-04-06T23:34:58.123Z,99.90
2019-04-06T23:37:19.431Z,99.90
2019-04-06T23:39:49.221Z,99.90
2019-04-06T23:42:18.560Z,99.90
2019-04-06T23:44:48.782Z,99.90
2019-04-06T23:47:19.092Z,99.90
2019-04-06T23:49:49.527Z,99.90
2019-04-06T23:52:19.473Z,99.90
2019-04-06T23:54:49.210Z,99.90
2019-04-06T23:57:18.699Z,99.90
2019-04-06T23:59:48.101Z,99.90
